Terminal Aerodrome Forecast
Issued by NWS Blacksburg, VA

Current Version | Previous Version | Text Only | Print | Product List | Glossary Off
Versions: 1 2 3 4 5 6 7 8 9 10 11 12 13 14 15 16 17

000
FTUS41 KRNK 190910 AAA
TAFBLF
TAF AMD
KBLF 190910Z 1909/2006 00000KT P6SM SKC
      TEMPO 1909/1912 4SM BR
     FM191300 VRB03KT P6SM BKN025
     FM191500 28003KT P6SM SCT050=

USA.gov is the U.S. government's official web portal to all federal, state and local government web resources and services.